CheckWX is a tool to help pilots better visualize weather data.  It is not intended as a substitute for an official pre-flight weather briefing.

17:12:40 UTC

KFIG METAR
Clearfield-Lawrence Airport
Clearfield, Pennsylvania, USA
Current

19 mins ago

KFIG 211654Z AUTO 24009KT 10SM SCT036 SCT070 30/23 A2996 RMK AO2 SLP131 T03000228
Observed
Jul-21 @ 16:54 UTC
Wind
  • 240° at 9 KTS
Visibility
10 SM
Flight Rules
VFR
Cloud Levels
  • Scattered at 3,600' AGL
  • Scattered at 7,000' AGL
Temperature
30°C / 86°F
Dewpoint
23°C / 73°F
Heat Index
34°C / 93°F
Humidity
66%
Altimeter
29.96" Hg
Pressure
1014.52 hPa
Previous

1 hour ago

KFIG 211554Z AUTO 30011G16KT 10SM CLR 30/22 A2996 RMK AO2 SLP131 T03000217
Observed
Jul-21 @ 15:54 UTC
Wind
  • 300° at 11 KTS
  • Gusting to 16 KTS
Visibility
10 SM
Flight Rules
VFR
Cloud Levels
  • Clear skies
Temperature
30°C / 86°F
Dewpoint
22°C / 72°F
Heat Index
33°C / 92°F
Humidity
62%
Altimeter
29.96" Hg
Pressure
1014.52 hPa
Previous

2 hours ago

KFIG 211454Z AUTO 28008KT 10SM FEW025 29/22 A2995 RMK AO2 SLP129 T02890222 55002
Observed
Jul-21 @ 14:54 UTC
Wind
  • 280° at 8 KTS
Visibility
10 SM
Flight Rules
VFR
Cloud Levels
  • Few at 2,500' AGL
Temperature
29°C / 84°F
Dewpoint
22°C / 72°F
Heat Index
32°C / 89°F
Humidity
66%
Altimeter
29.95" Hg
Pressure
1014.22 hPa